sensor_id;sensor_type;location;lat;lon;timestamp;P1;durP1;ratioP1;P2;durP2;ratioP2
10154;SDS011;5118;48.570;7.916;2022-08-19T00:01:33;31.25;;;28.25;;
10154;SDS011;5118;48.570;7.916;2022-08-19T00:04:06;29.77;;;26.85;;
10154;SDS011;5118;48.570;7.916;2022-08-19T00:06:37;30.42;;;27.45;;
10154;SDS011;5118;48.570;7.916;2022-08-19T00:09:08;30.85;;;28.02;;
10154;SDS011;5118;48.570;7.916;2022-08-19T00:11:39;29.92;;;26.98;;
10154;SDS011;5118;48.570;7.916;2022-08-19T00:14:10;28.92;;;26.23;;
10154;SDS011;5118;48.570;7.916;2022-08-19T00:16:40;30.45;;;27.45;;
10154;SDS011;5118;48.570;7.916;2022-08-19T00:19:11;30.50;;;27.75;;
10154;SDS011;5118;48.570;7.916;2022-08-19T00:21:40;30.70;;;27.67;;
10154;SDS011;5118;48.570;7.916;2022-08-19T00:24:10;30.08;;;27.17;;
10154;SDS011;5118;48.570;7.916;2022-08-19T00:26:42;30.67;;;27.77;;
10154;SDS011;5118;48.570;7.916;2022-08-19T00:29:13;29.02;;;26.17;;
10154;SDS011;5118;48.570;7.916;2022-08-19T00:31:43;27.20;;;24.65;;
10154;SDS011;5118;48.570;7.916;2022-08-19T00:34:14;27.92;;;25.30;;
10154;SDS011;5118;48.570;7.916;2022-08-19T00:36:44;27.40;;;24.50;;
10154;SDS011;5118;48.570;7.916;2022-08-19T00:39:13;26.30;;;23.90;;
10154;SDS011;5118;48.570;7.916;2022-08-19T00:41:43;26.83;;;24.33;;
10154;SDS011;5118;48.570;7.916;2022-08-19T00:44:15;26.83;;;24.38;;
10154;SDS011;5118;48.570;7.916;2022-08-19T00:46:52;27.23;;;24.70;;
10154;SDS011;5118;48.570;7.916;2022-08-19T00:49:27;26.60;;;24.00;;
10154;SDS011;5118;48.570;7.916;2022-08-19T00:52:02;26.65;;;24.23;;
10154;SDS011;5118;48.570;7.916;2022-08-19T00:54:35;26.25;;;23.85;;
10154;SDS011;5118;48.570;7.916;2022-08-19T00:57:06;26.45;;;23.95;;
10154;SDS011;5118;48.570;7.916;2022-08-19T00:59:39;27.63;;;24.95;;
10154;SDS011;5118;48.570;7.916;2022-08-19T01:02:27;27.73;;;25.10;;
10154;SDS011;5118;48.570;7.916;2022-08-19T01:04:58;26.98;;;24.48;;
10154;SDS011;5118;48.570;7.916;2022-08-19T01:07:28;25.30;;;22.88;;
10154;SDS011;5118;48.570;7.916;2022-08-19T01:10:04;26.40;;;23.70;;
10154;SDS011;5118;48.570;7.916;2022-08-19T01:12:36;24.95;;;22.75;;
10154;SDS011;5118;48.570;7.916;2022-08-19T01:15:05;26.67;;;24.17;;
10154;SDS011;5118;48.570;7.916;2022-08-19T01:17:36;25.60;;;23.15;;
10154;SDS011;5118;48.570;7.916;2022-08-19T01:20:11;26.15;;;23.65;;
10154;SDS011;5118;48.570;7.916;2022-08-19T01:22:44;26.70;;;24.00;;
10154;SDS011;5118;48.570;7.916;2022-08-19T01:25:14;26.80;;;24.25;;
10154;SDS011;5118;48.570;7.916;2022-08-19T01:27:46;26.20;;;23.80;;
10154;SDS011;5118;48.570;7.916;2022-08-19T01:30:20;26.65;;;24.20;;
10154;SDS011;5118;48.570;7.916;2022-08-19T01:32:52;25.58;;;22.98;;
10154;SDS011;5118;48.570;7.916;2022-08-19T01:35:23;26.75;;;24.15;;
10154;SDS011;5118;48.570;7.916;2022-08-19T01:37:56;27.77;;;25.15;;
10154;SDS011;5118;48.570;7.916;2022-08-19T01:40:27;28.15;;;25.20;;
10154;SDS011;5118;48.570;7.916;2022-08-19T01:42:58;27.83;;;25.02;;
10154;SDS011;5118;48.570;7.916;2022-08-19T01:45:28;26.98;;;24.38;;
10154;SDS011;5118;48.570;7.916;2022-08-19T01:47:58;26.40;;;23.80;;
10154;SDS011;5118;48.570;7.916;2022-08-19T01:50:28;28.05;;;25.42;;
10154;SDS011;5118;48.570;7.916;2022-08-19T01:53:00;27.55;;;24.75;;
10154;SDS011;5118;48.570;7.916;2022-08-19T01:55:33;27.00;;;24.40;;
10154;SDS011;5118;48.570;7.916;2022-08-19T01:58:08;27.20;;;24.67;;
10154;SDS011;5118;48.570;7.916;2022-08-19T02:00:40;28.60;;;25.75;;
10154;SDS011;5118;48.570;7.916;2022-08-19T02:03:09;28.15;;;25.35;;
10154;SDS011;5118;48.570;7.916;2022-08-19T02:05:38;28.80;;;26.10;;
10154;SDS011;5118;48.570;7.916;2022-08-19T02:08:09;26.10;;;23.45;;
10154;SDS011;5118;48.570;7.916;2022-08-19T02:10:39;26.90;;;24.33;;
10154;SDS011;5118;48.570;7.916;2022-08-19T02:13:09;27.63;;;24.83;;
10154;SDS011;5118;48.570;7.916;2022-08-19T02:15:38;25.90;;;23.45;;
10154;SDS011;5118;48.570;7.916;2022-08-19T02:18:07;28.05;;;25.27;;
10154;SDS011;5118;48.570;7.916;2022-08-19T02:20:36;26.10;;;23.58;;
10154;SDS011;5118;48.570;7.916;2022-08-19T02:23:06;28.23;;;25.55;;
10154;SDS011;5118;48.570;7.916;2022-08-19T02:25:40;27.92;;;25.20;;
10154;SDS011;5118;48.570;7.916;2022-08-19T02:28:09;27.92;;;25.00;;
10154;SDS011;5118;48.570;7.916;2022-08-19T02:30:44;29.02;;;26.13;;
10154;SDS011;5118;48.570;7.916;2022-08-19T02:33:13;26.55;;;23.92;;
10154;SDS011;5118;48.570;7.916;2022-08-19T02:35:42;28.42;;;25.63;;
10154;SDS011;5118;48.570;7.916;2022-08-19T02:38:13;29.13;;;26.25;;
10154;SDS011;5118;48.570;7.916;2022-08-19T02:40:55;28.55;;;25.58;;
10154;SDS011;5118;48.570;7.916;2022-08-19T02:43:26;29.55;;;26.42;;
10154;SDS011;5118;48.570;7.916;2022-08-19T02:46:00;29.15;;;26.40;;
10154;SDS011;5118;48.570;7.916;2022-08-19T02:48:29;28.55;;;25.75;;
10154;SDS011;5118;48.570;7.916;2022-08-19T02:50:59;29.73;;;26.73;;
10154;SDS011;5118;48.570;7.916;2022-08-19T02:53:29;29.50;;;26.52;;
10154;SDS011;5118;48.570;7.916;2022-08-19T02:55:58;28.58;;;25.77;;
10154;SDS011;5118;48.570;7.916;2022-08-19T02:58:27;30.15;;;27.05;;
10154;SDS011;5118;48.570;7.916;2022-08-19T03:00:56;30.23;;;27.02;;
10154;SDS011;5118;48.570;7.916;2022-08-19T03:03:25;30.85;;;27.75;;
10154;SDS011;5118;48.570;7.916;2022-08-19T03:06:04;30.40;;;27.30;;
10154;SDS011;5118;48.570;7.916;2022-08-19T03:08:36;31.48;;;28.17;;
10154;SDS011;5118;48.570;7.916;2022-08-19T03:11:05;31.35;;;28.10;;
10154;SDS011;5118;48.570;7.916;2022-08-19T03:13:39;32.10;;;28.83;;
10154;SDS011;5118;48.570;7.916;2022-08-19T03:16:09;30.25;;;27.15;;
10154;SDS011;5118;48.570;7.916;2022-08-19T03:18:39;32.15;;;28.83;;
10154;SDS011;5118;48.570;7.916;2022-08-19T03:21:07;33.35;;;29.90;;
10154;SDS011;5118;48.570;7.916;2022-08-19T03:23:39;32.13;;;28.73;;
10154;SDS011;5118;48.570;7.916;2022-08-19T03:26:08;32.13;;;28.90;;
10154;SDS011;5118;48.570;7.916;2022-08-19T03:28:42;32.33;;;29.02;;
10154;SDS011;5118;48.570;7.916;2022-08-19T03:31:18;33.38;;;29.98;;
10154;SDS011;5118;48.570;7.916;2022-08-19T03:34:08;34.03;;;30.55;;
10154;SDS011;5118;48.570;7.916;2022-08-19T03:36:38;32.33;;;28.52;;
10154;SDS011;5118;48.570;7.916;2022-08-19T03:39:09;31.00;;;27.85;;
10154;SDS011;5118;48.570;7.916;2022-08-19T03:41:38;29.17;;;26.38;;
10154;SDS011;5118;48.570;7.916;2022-08-19T03:44:11;30.85;;;27.75;;
10154;SDS011;5118;48.570;7.916;2022-08-19T03:46:44;27.92;;;25.23;;
10154;SDS011;5118;48.570;7.916;2022-08-19T03:49:18;33.45;;;28.45;;
10154;SDS011;5118;48.570;7.916;2022-08-19T03:51:55;31.67;;;28.38;;
10154;SDS011;5118;48.570;7.916;2022-08-19T03:54:28;31.02;;;27.73;;
10154;SDS011;5118;48.570;7.916;2022-08-19T03:56:57;31.85;;;28.55;;
10154;SDS011;5118;48.570;7.916;2022-08-19T03:59:27;32.55;;;29.17;;
10154;SDS011;5118;48.570;7.916;2022-08-19T04:01:59;32.72;;;29.17;;
10154;SDS011;5118;48.570;7.916;2022-08-19T04:04:29;32.47;;;29.17;;
10154;SDS011;5118;48.570;7.916;2022-08-19T04:06:58;33.65;;;30.08;;
10154;SDS011;5118;48.570;7.916;2022-08-19T04:09:28;34.65;;;30.55;;
10154;SDS011;5118;48.570;7.916;2022-08-19T04:11:57;32.90;;;29.50;;
10154;SDS011;5118;48.570;7.916;2022-08-19T04:14:26;32.33;;;28.85;;
10154;SDS011;5118;48.570;7.916;2022-08-19T04:16:58;33.28;;;29.48;;
10154;SDS011;5118;48.570;7.916;2022-08-19T04:19:31;33.40;;;29.77;;
10154;SDS011;5118;48.570;7.916;2022-08-19T04:22:02;34.10;;;30.52;;
10154;SDS011;5118;48.570;7.916;2022-08-19T04:24:33;33.33;;;29.83;;
10154;SDS011;5118;48.570;7.916;2022-08-19T04:27:02;33.25;;;29.70;;
10154;SDS011;5118;48.570;7.916;2022-08-19T04:29:33;34.78;;;29.55;;
10154;SDS011;5118;48.570;7.916;2022-08-19T04:32:02;33.65;;;29.95;;
10154;SDS011;5118;48.570;7.916;2022-08-19T04:34:35;33.63;;;29.65;;
10154;SDS011;5118;48.570;7.916;2022-08-19T04:37:25;33.92;;;30.40;;
10154;SDS011;5118;48.570;7.916;2022-08-19T04:40:02;33.72;;;30.17;;
10154;SDS011;5118;48.570;7.916;2022-08-19T04:42:49;33.05;;;29.55;;
10154;SDS011;5118;48.570;7.916;2022-08-19T04:45:18;34.25;;;30.58;;
10154;SDS011;5118;48.570;7.916;2022-08-19T04:47:48;33.90;;;29.48;;
10154;SDS011;5118;48.570;7.916;2022-08-19T04:50:24;34.95;;;31.02;;
10154;SDS011;5118;48.570;7.916;2022-08-19T04:52:53;34.15;;;29.70;;
10154;SDS011;5118;48.570;7.916;2022-08-19T04:55:24;33.95;;;30.35;;
10154;SDS011;5118;48.570;7.916;2022-08-19T04:57:53;32.53;;;29.13;;
10154;SDS011;5118;48.570;7.916;2022-08-19T05:00:22;34.13;;;30.45;;
10154;SDS011;5118;48.570;7.916;2022-08-19T05:02:51;31.83;;;28.50;;
10154;SDS011;5118;48.570;7.916;2022-08-19T05:05:19;34.28;;;30.55;;
10154;SDS011;5118;48.570;7.916;2022-08-19T05:07:48;33.13;;;29.55;;
10154;SDS011;5118;48.570;7.916;2022-08-19T05:10:17;34.95;;;29.98;;
10154;SDS011;5118;48.570;7.916;2022-08-19T05:12:47;33.50;;;29.95;;
10154;SDS011;5118;48.570;7.916;2022-08-19T05:15:16;31.15;;;27.95;;
10154;SDS011;5118;48.570;7.916;2022-08-19T05:17:46;33.53;;;30.08;;
10154;SDS011;5118;48.570;7.916;2022-08-19T05:20:28;33.25;;;29.75;;
10154;SDS011;5118;48.570;7.916;2022-08-19T05:23:14;33.20;;;29.17;;
10154;SDS011;5118;48.570;7.916;2022-08-19T05:25:47;33.15;;;29.67;;
10154;SDS011;5118;48.570;7.916;2022-08-19T05:28:18;32.25;;;28.83;;
10154;SDS011;5118;48.570;7.916;2022-08-19T05:30:47;32.25;;;28.95;;
10154;SDS011;5118;48.570;7.916;2022-08-19T05:33:17;32.33;;;28.92;;
10154;SDS011;5118;48.570;7.916;2022-08-19T05:35:46;34.13;;;30.08;;
10154;SDS011;5118;48.570;7.916;2022-08-19T05:38:16;34.05;;;29.77;;
10154;SDS011;5118;48.570;7.916;2022-08-19T05:40:45;32.38;;;28.90;;
10154;SDS011;5118;48.570;7.916;2022-08-19T05:43:14;32.35;;;29.10;;
10154;SDS011;5118;48.570;7.916;2022-08-19T05:45:45;31.45;;;28.23;;
10154;SDS011;5118;48.570;7.916;2022-08-19T05:48:14;32.22;;;28.75;;
10154;SDS011;5118;48.570;7.916;2022-08-19T05:50:44;30.67;;;27.48;;
10154;SDS011;5118;48.570;7.916;2022-08-19T05:53:13;32.63;;;29.30;;
10154;SDS011;5118;48.570;7.916;2022-08-19T05:55:43;32.72;;;29.27;;
10154;SDS011;5118;48.570;7.916;2022-08-19T05:58:11;32.58;;;29.08;;
10154;SDS011;5118;48.570;7.916;2022-08-19T06:00:42;29.80;;;26.75;;
10154;SDS011;5118;48.570;7.916;2022-08-19T06:03:12;31.33;;;28.08;;
10154;SDS011;5118;48.570;7.916;2022-08-19T06:05:41;30.90;;;27.83;;
10154;SDS011;5118;48.570;7.916;2022-08-19T06:08:18;31.65;;;28.45;;
10154;SDS011;5118;48.570;7.916;2022-08-19T06:13:45;30.83;;;27.83;;
10154;SDS011;5118;48.570;7.916;2022-08-19T06:16:25;30.65;;;26.60;;
10154;SDS011;5118;48.570;7.916;2022-08-19T06:18:55;30.58;;;27.58;;
10154;SDS011;5118;48.570;7.916;2022-08-19T06:21:25;30.95;;;27.65;;
10154;SDS011;5118;48.570;7.916;2022-08-19T06:23:56;29.83;;;27.02;;
10154;SDS011;5118;48.570;7.916;2022-08-19T06:26:25;30.52;;;27.55;;
10154;SDS011;5118;48.570;7.916;2022-08-19T06:28:54;30.98;;;27.92;;
10154;SDS011;5118;48.570;7.916;2022-08-19T06:31:24;30.25;;;27.45;;
10154;SDS011;5118;48.570;7.916;2022-08-19T06:33:55;31.00;;;27.73;;
10154;SDS011;5118;48.570;7.916;2022-08-19T06:36:28;30.52;;;27.52;;
10154;SDS011;5118;48.570;7.916;2022-08-19T06:39:00;30.98;;;27.75;;
10154;SDS011;5118;48.570;7.916;2022-08-19T06:41:31;29.13;;;26.45;;
10154;SDS011;5118;48.570;7.916;2022-08-19T06:44:16;30.38;;;27.35;;
10154;SDS011;5118;48.570;7.916;2022-08-19T06:46:45;30.52;;;27.25;;
10154;SDS011;5118;48.570;7.916;2022-08-19T06:49:22;29.73;;;26.77;;
10154;SDS011;5118;48.570;7.916;2022-08-19T06:51:58;29.70;;;26.77;;
10154;SDS011;5118;48.570;7.916;2022-08-19T06:54:28;31.17;;;28.15;;
10154;SDS011;5118;48.570;7.916;2022-08-19T06:57:03;29.35;;;26.65;;
10154;SDS011;5118;48.570;7.916;2022-08-19T06:59:33;28.90;;;26.08;;
10154;SDS011;5118;48.570;7.916;2022-08-19T07:02:02;30.15;;;27.25;;
10154;SDS011;5118;48.570;7.916;2022-08-19T07:04:34;30.23;;;27.20;;
10154;SDS011;5118;48.570;7.916;2022-08-19T07:07:08;29.48;;;26.58;;
10154;SDS011;5118;48.570;7.916;2022-08-19T07:09:46;28.70;;;26.00;;
10154;SDS011;5118;48.570;7.916;2022-08-19T07:12:26;30.80;;;27.65;;
10154;SDS011;5118;48.570;7.916;2022-08-19T07:14:58;29.63;;;26.77;;
10154;SDS011;5118;48.570;7.916;2022-08-19T07:17:27;29.15;;;26.52;;
10154;SDS011;5118;48.570;7.916;2022-08-19T07:19:58;28.67;;;25.98;;
10154;SDS011;5118;48.570;7.916;2022-08-19T07:22:32;29.13;;;26.60;;
10154;SDS011;5118;48.570;7.916;2022-08-19T07:25:02;29.95;;;27.17;;
10154;SDS011;5118;48.570;7.916;2022-08-19T07:27:31;28.52;;;25.67;;
10154;SDS011;5118;48.570;7.916;2022-08-19T07:30:00;28.50;;;26.00;;
10154;SDS011;5118;48.570;7.916;2022-08-19T07:32:29;27.00;;;24.60;;
10154;SDS011;5118;48.570;7.916;2022-08-19T07:34:59;28.58;;;26.05;;
10154;SDS011;5118;48.570;7.916;2022-08-19T07:37:30;27.95;;;25.33;;
10154;SDS011;5118;48.570;7.916;2022-08-19T07:39:59;28.70;;;26.15;;
10154;SDS011;5118;48.570;7.916;2022-08-19T07:42:28;29.10;;;26.40;;
10154;SDS011;5118;48.570;7.916;2022-08-19T07:44:57;27.85;;;25.25;;
10154;SDS011;5118;48.570;7.916;2022-08-19T07:47:26;27.23;;;24.67;;
10154;SDS011;5118;48.570;7.916;2022-08-19T07:50:15;27.45;;;25.05;;
10154;SDS011;5118;48.570;7.916;2022-08-19T07:52:46;26.55;;;24.05;;
10154;SDS011;5118;48.570;7.916;2022-08-19T07:55:17;26.42;;;24.15;;
10154;SDS011;5118;48.570;7.916;2022-08-19T07:58:07;24.48;;;22.27;;
10154;SDS011;5118;48.570;7.916;2022-08-19T08:00:36;27.60;;;25.20;;
10154;SDS011;5118;48.570;7.916;2022-08-19T08:03:06;26.40;;;23.88;;
10154;SDS011;5118;48.570;7.916;2022-08-19T08:05:36;25.48;;;22.92;;
10154;SDS011;5118;48.570;7.916;2022-08-19T08:08:23;23.08;;;21.17;;
10154;SDS011;5118;48.570;7.916;2022-08-19T08:11:14;26.63;;;24.15;;
10154;SDS011;5118;48.570;7.916;2022-08-19T08:13:46;23.10;;;20.98;;
10154;SDS011;5118;48.570;7.916;2022-08-19T08:16:30;23.67;;;21.30;;
10154;SDS011;5118;48.570;7.916;2022-08-19T08:19:12;24.88;;;22.40;;
10154;SDS011;5118;48.570;7.916;2022-08-19T08:21:53;25.10;;;22.90;;
10154;SDS011;5118;48.570;7.916;2022-08-19T08:24:23;26.00;;;23.73;;
10154;SDS011;5118;48.570;7.916;2022-08-19T08:26:54;24.45;;;22.30;;
10154;SDS011;5118;48.570;7.916;2022-08-19T08:29:25;22.95;;;21.05;;
10154;SDS011;5118;48.570;7.916;2022-08-19T08:32:00;24.00;;;21.67;;
10154;SDS011;5118;48.570;7.916;2022-08-19T08:34:40;23.55;;;21.20;;
10154;SDS011;5118;48.570;7.916;2022-08-19T08:37:11;23.70;;;21.60;;
10154;SDS011;5118;48.570;7.916;2022-08-19T08:39:41;22.35;;;20.27;;
10154;SDS011;5118;48.570;7.916;2022-08-19T08:42:12;18.70;;;17.05;;
10154;SDS011;5118;48.570;7.916;2022-08-19T08:44:51;22.67;;;20.58;;
10154;SDS011;5118;48.570;7.916;2022-08-19T08:47:30;22.52;;;20.63;;
10154;SDS011;5118;48.570;7.916;2022-08-19T08:50:16;22.83;;;20.83;;
10154;SDS011;5118;48.570;7.916;2022-08-19T08:52:53;20.50;;;18.65;;
10154;SDS011;5118;48.570;7.916;2022-08-19T08:55:26;21.52;;;19.55;;
10154;SDS011;5118;48.570;7.916;2022-08-19T08:58:03;21.23;;;19.13;;
10154;SDS011;5118;48.570;7.916;2022-08-19T09:00:35;20.77;;;18.90;;
10154;SDS011;5118;48.570;7.916;2022-08-19T09:03:09;20.95;;;18.95;;
10154;SDS011;5118;48.570;7.916;2022-08-19T09:05:55;17.90;;;16.38;;
10154;SDS011;5118;48.570;7.916;2022-08-19T09:08:36;18.33;;;16.58;;
10154;SDS011;5118;48.570;7.916;2022-08-19T09:11:12;19.52;;;17.73;;
10154;SDS011;5118;48.570;7.916;2022-08-19T09:14:08;19.00;;;17.30;;
10154;SDS011;5118;48.570;7.916;2022-08-19T09:17:02;18.83;;;16.80;;
10154;SDS011;5118;48.570;7.916;2022-08-19T09:19:34;19.75;;;18.05;;
10154;SDS011;5118;48.570;7.916;2022-08-19T09:22:05;18.40;;;16.70;;
10154;SDS011;5118;48.570;7.916;2022-08-19T09:24:37;17.63;;;15.98;;
10154;SDS011;5118;48.570;7.916;2022-08-19T09:27:06;19.45;;;17.67;;
10154;SDS011;5118;48.570;7.916;2022-08-19T09:29:44;17.80;;;16.13;;
10154;SDS011;5118;48.570;7.916;2022-08-19T09:32:15;18.40;;;16.80;;
10154;SDS011;5118;48.570;7.916;2022-08-19T09:34:52;18.00;;;16.35;;
10154;SDS011;5118;48.570;7.916;2022-08-19T09:37:21;17.05;;;15.55;;
10154;SDS011;5118;48.570;7.916;2022-08-19T09:39:52;16.73;;;15.05;;
10154;SDS011;5118;48.570;7.916;2022-08-19T09:42:21;18.20;;;16.38;;
10154;SDS011;5118;48.570;7.916;2022-08-19T09:45:00;19.08;;;17.15;;
10154;SDS011;5118;48.570;7.916;2022-08-19T09:47:30;18.98;;;17.20;;
10154;SDS011;5118;48.570;7.916;2022-08-19T09:50:06;19.52;;;17.70;;
10154;SDS011;5118;48.570;7.916;2022-08-19T09:52:42;18.80;;;17.02;;
10154;SDS011;5118;48.570;7.916;2022-08-19T09:55:24;17.58;;;16.08;;
10154;SDS011;5118;48.570;7.916;2022-08-19T09:57:58;17.77;;;16.10;;
10154;SDS011;5118;48.570;7.916;2022-08-19T10:00:28;19.00;;;17.23;;
10154;SDS011;5118;48.570;7.916;2022-08-19T10:02:58;17.30;;;15.88;;
10154;SDS011;5118;48.570;7.916;2022-08-19T10:05:27;16.65;;;15.30;;
10154;SDS011;5118;48.570;7.916;2022-08-19T10:08:15;15.27;;;14.00;;
10154;SDS011;5118;48.570;7.916;2022-08-19T10:10:48;19.00;;;17.40;;
10154;SDS011;5118;48.570;7.916;2022-08-19T10:13:18;16.70;;;15.23;;
10154;SDS011;5118;48.570;7.916;2022-08-19T10:15:49;17.42;;;15.73;;
10154;SDS011;5118;48.570;7.916;2022-08-19T10:18:19;16.92;;;15.32;;
10154;SDS011;5118;48.570;7.916;2022-08-19T10:20:49;15.13;;;14.00;;
10154;SDS011;5118;48.570;7.916;2022-08-19T10:23:19;16.75;;;15.20;;
10154;SDS011;5118;48.570;7.916;2022-08-19T10:25:50;13.02;;;12.02;;
10154;SDS011;5118;48.570;7.916;2022-08-19T10:28:20;14.82;;;13.45;;
10154;SDS011;5118;48.570;7.916;2022-08-19T10:30:49;16.40;;;14.95;;
10154;SDS011;5118;48.570;7.916;2022-08-19T10:33:18;13.50;;;12.50;;
10154;SDS011;5118;48.570;7.916;2022-08-19T10:36:08;14.27;;;13.07;;
10154;SDS011;5118;48.570;7.916;2022-08-19T10:38:44;14.20;;;13.00;;
10154;SDS011;5118;48.570;7.916;2022-08-19T10:41:22;13.93;;;12.73;;
10154;SDS011;5118;48.570;7.916;2022-08-19T10:43:52;13.68;;;12.57;;
10154;SDS011;5118;48.570;7.916;2022-08-19T10:46:22;13.80;;;12.70;;
10154;SDS011;5118;48.570;7.916;2022-08-19T10:48:53;13.45;;;12.15;;
10154;SDS011;5118;48.570;7.916;2022-08-19T10:51:22;14.07;;;12.82;;
10154;SDS011;5118;48.570;7.916;2022-08-19T10:54:14;14.38;;;12.80;;
10154;SDS011;5118;48.570;7.916;2022-08-19T10:57:00;14.80;;;13.50;;
10154;SDS011;5118;48.570;7.916;2022-08-19T10:59:28;14.57;;;13.15;;
10154;SDS011;5118;48.570;7.916;2022-08-19T11:02:02;14.40;;;13.13;;
10154;SDS011;5118;48.570;7.916;2022-08-19T11:04:36;14.48;;;13.13;;
10154;SDS011;5118;48.570;7.916;2022-08-19T11:07:05;14.32;;;13.10;;
10154;SDS011;5118;48.570;7.916;2022-08-19T11:09:37;14.70;;;13.40;;
10154;SDS011;5118;48.570;7.916;2022-08-19T11:12:08;15.27;;;13.82;;
10154;SDS011;5118;48.570;7.916;2022-08-19T11:14:39;15.80;;;14.40;;
10154;SDS011;5118;48.570;7.916;2022-08-19T11:17:07;15.65;;;14.25;;
10154;SDS011;5118;48.570;7.916;2022-08-19T11:19:37;16.20;;;14.77;;
10154;SDS011;5118;48.570;7.916;2022-08-19T11:22:07;16.10;;;14.63;;
10154;SDS011;5118;48.570;7.916;2022-08-19T11:24:41;15.85;;;14.45;;
10154;SDS011;5118;48.570;7.916;2022-08-19T11:27:11;16.58;;;15.18;;
10154;SDS011;5118;48.570;7.916;2022-08-19T11:29:40;15.40;;;14.18;;
10154;SDS011;5118;48.570;7.916;2022-08-19T11:32:09;15.57;;;14.27;;
10154;SDS011;5118;48.570;7.916;2022-08-19T11:34:39;16.92;;;15.43;;
10154;SDS011;5118;48.570;7.916;2022-08-19T11:37:08;16.90;;;15.10;;
10154;SDS011;5118;48.570;7.916;2022-08-19T11:39:37;15.65;;;14.35;;
10154;SDS011;5118;48.570;7.916;2022-08-19T11:42:06;15.32;;;14.15;;
10154;SDS011;5118;48.570;7.916;2022-08-19T11:44:51;15.70;;;14.40;;
10154;SDS011;5118;48.570;7.916;2022-08-19T11:47:20;14.27;;;12.98;;
10154;SDS011;5118;48.570;7.916;2022-08-19T11:49:49;15.15;;;13.88;;
10154;SDS011;5118;48.570;7.916;2022-08-19T11:52:18;14.00;;;12.80;;
10154;SDS011;5118;48.570;7.916;2022-08-19T11:54:46;15.18;;;13.98;;
10154;SDS011;5118;48.570;7.916;2022-08-19T11:57:15;16.20;;;14.90;;
10154;SDS011;5118;48.570;7.916;2022-08-19T11:59:47;14.77;;;13.57;;
10154;SDS011;5118;48.570;7.916;2022-08-19T12:02:18;13.65;;;12.55;;
10154;SDS011;5118;48.570;7.916;2022-08-19T12:04:48;14.27;;;12.98;;
10154;SDS011;5118;48.570;7.916;2022-08-19T12:07:17;14.88;;;13.77;;
10154;SDS011;5118;48.570;7.916;2022-08-19T12:09:45;14.45;;;13.13;;
10154;SDS011;5118;48.570;7.916;2022-08-19T12:12:14;12.85;;;11.68;;
10154;SDS011;5118;48.570;7.916;2022-08-19T12:14:43;11.82;;;10.80;;
10154;SDS011;5118;48.570;7.916;2022-08-19T12:17:13;10.73;;;9.93;;
10154;SDS011;5118;48.570;7.916;2022-08-19T12:19:43;9.43;;;8.77;;
10154;SDS011;5118;48.570;7.916;2022-08-19T12:22:11;11.02;;;10.07;;
10154;SDS011;5118;48.570;7.916;2022-08-19T12:24:40;9.85;;;9.15;;
10154;SDS011;5118;48.570;7.916;2022-08-19T12:27:09;9.23;;;8.57;;
10154;SDS011;5118;48.570;7.916;2022-08-19T12:29:38;8.52;;;7.85;;
10154;SDS011;5118;48.570;7.916;2022-08-19T12:32:08;8.48;;;7.68;;
10154;SDS011;5118;48.570;7.916;2022-08-19T12:34:38;7.78;;;7.18;;
10154;SDS011;5118;48.570;7.916;2022-08-19T12:37:08;7.70;;;7.10;;
10154;SDS011;5118;48.570;7.916;2022-08-19T12:39:38;7.10;;;6.50;;
10154;SDS011;5118;48.570;7.916;2022-08-19T12:42:08;7.00;;;6.40;;
10154;SDS011;5118;48.570;7.916;2022-08-19T12:44:38;6.72;;;6.13;;
10154;SDS011;5118;48.570;7.916;2022-08-19T12:47:08;6.28;;;5.82;;
10154;SDS011;5118;48.570;7.916;2022-08-19T12:49:39;6.30;;;5.80;;
10154;SDS011;5118;48.570;7.916;2022-08-19T12:52:23;7.53;;;6.72;;
10154;SDS011;5118;48.570;7.916;2022-08-19T12:54:54;5.68;;;5.15;;
10154;SDS011;5118;48.570;7.916;2022-08-19T12:57:25;5.80;;;4.90;;
10154;SDS011;5118;48.570;7.916;2022-08-19T13:00:00;6.40;;;5.75;;
10154;SDS011;5118;48.570;7.916;2022-08-19T13:02:34;6.05;;;5.63;;
10154;SDS011;5118;48.570;7.916;2022-08-19T13:05:05;6.28;;;5.68;;
10154;SDS011;5118;48.570;7.916;2022-08-19T13:07:38;6.47;;;6.00;;
10154;SDS011;5118;48.570;7.916;2022-08-19T13:10:09;7.18;;;6.47;;
10154;SDS011;5118;48.570;7.916;2022-08-19T13:12:42;7.47;;;6.50;;
10154;SDS011;5118;48.570;7.916;2022-08-19T13:15:11;7.22;;;6.72;;
10154;SDS011;5118;48.570;7.916;2022-08-19T13:17:40;6.70;;;6.10;;
10154;SDS011;5118;48.570;7.916;2022-08-19T13:20:10;7.53;;;6.93;;
10154;SDS011;5118;48.570;7.916;2022-08-19T13:22:40;7.63;;;7.03;;
10154;SDS011;5118;48.570;7.916;2022-08-19T13:25:09;7.45;;;6.70;;
10154;SDS011;5118;48.570;7.916;2022-08-19T13:27:38;7.70;;;6.97;;
10154;SDS011;5118;48.570;7.916;2022-08-19T13:30:08;8.50;;;7.05;;
10154;SDS011;5118;48.570;7.916;2022-08-19T13:32:57;9.30;;;8.60;;
10154;SDS011;5118;48.570;7.916;2022-08-19T13:35:43;10.90;;;10.10;;
10154;SDS011;5118;48.570;7.916;2022-08-19T13:38:16;11.30;;;10.30;;
10154;SDS011;5118;48.570;7.916;2022-08-19T13:40:47;11.38;;;10.35;;
10154;SDS011;5118;48.570;7.916;2022-08-19T13:43:18;10.95;;;10.00;;
10154;SDS011;5118;48.570;7.916;2022-08-19T13:45:50;9.30;;;8.52;;
10154;SDS011;5118;48.570;7.916;2022-08-19T13:48:24;9.27;;;8.38;;
10154;SDS011;5118;48.570;7.916;2022-08-19T13:50:54;8.52;;;7.70;;
10154;SDS011;5118;48.570;7.916;2022-08-19T13:53:24;7.68;;;7.07;;
10154;SDS011;5118;48.570;7.916;2022-08-19T13:55:52;8.38;;;7.57;;
10154;SDS011;5118;48.570;7.916;2022-08-19T13:58:21;7.80;;;7.30;;
10154;SDS011;5118;48.570;7.916;2022-08-19T14:00:50;8.00;;;7.28;;
10154;SDS011;5118;48.570;7.916;2022-08-19T14:03:19;7.57;;;6.97;;
10154;SDS011;5118;48.570;7.916;2022-08-19T14:05:47;8.00;;;7.28;;
10154;SDS011;5118;48.570;7.916;2022-08-19T14:08:17;7.40;;;6.82;;
10154;SDS011;5118;48.570;7.916;2022-08-19T14:10:47;7.80;;;7.10;;
10154;SDS011;5118;48.570;7.916;2022-08-19T14:13:19;7.97;;;7.15;;
10154;SDS011;5118;48.570;7.916;2022-08-19T14:15:49;7.88;;;7.22;;
10154;SDS011;5118;48.570;7.916;2022-08-19T14:18:18;7.85;;;7.22;;
10154;SDS011;5118;48.570;7.916;2022-08-19T14:20:47;7.90;;;7.30;;
10154;SDS011;5118;48.570;7.916;2022-08-19T14:23:15;8.48;;;7.50;;
10154;SDS011;5118;48.570;7.916;2022-08-19T14:25:44;8.73;;;7.45;;
10154;SDS011;5118;48.570;7.916;2022-08-19T14:28:14;7.72;;;7.13;;
10154;SDS011;5118;48.570;7.916;2022-08-19T14:30:43;7.88;;;7.18;;
10154;SDS011;5118;48.570;7.916;2022-08-19T14:33:12;7.72;;;6.93;;
10154;SDS011;5118;48.570;7.916;2022-08-19T14:35:40;10.25;;;6.90;;
10154;SDS011;5118;48.570;7.916;2022-08-19T14:38:14;8.50;;;7.53;;
10154;SDS011;5118;48.570;7.916;2022-08-19T14:41:05;6.88;;;6.35;;
10154;SDS011;5118;48.570;7.916;2022-08-19T14:43:36;7.07;;;6.57;;
10154;SDS011;5118;48.570;7.916;2022-08-19T14:46:05;8.25;;;6.72;;
10154;SDS011;5118;48.570;7.916;2022-08-19T14:48:37;7.20;;;6.50;;
10154;SDS011;5118;48.570;7.916;2022-08-19T14:51:07;7.18;;;6.43;;
10154;SDS011;5118;48.570;7.916;2022-08-19T14:53:36;7.57;;;6.90;;
10154;SDS011;5118;48.570;7.916;2022-08-19T14:56:08;7.43;;;6.93;;
10154;SDS011;5118;48.570;7.916;2022-08-19T14:58:39;8.45;;;7.60;;
10154;SDS011;5118;48.570;7.916;2022-08-19T15:01:08;10.77;;;7.80;;
10154;SDS011;5118;48.570;7.916;2022-08-19T15:03:38;8.82;;;8.13;;
10154;SDS011;5118;48.570;7.916;2022-08-19T15:06:08;8.07;;;7.28;;
10154;SDS011;5118;48.570;7.916;2022-08-19T15:08:39;7.55;;;6.95;;
10154;SDS011;5118;48.570;7.916;2022-08-19T15:11:10;6.88;;;6.32;;